Time;durP1;ratioP1;P1;durP2;ratioP2;P2;SDS_P1;SDS_P2;PMS_P1;PMS_P2;Temp;Humidity;BMP_temperature;BMP_pressure;BME280_temperature;BME280_humidity;BME280_pressure;Samples;Min_cycle;Max_cycle;Signal;HPM_P1;HPM_P2
2023/12/15 00:02:13;;;;;;;5.83;4.30;;;8.90;99.90;;;;;;4962588;28;20210;-68
2023/12/15 00:04:38;;;;;;;5.20;3.97;;;8.80;99.90;;;;;;4965384;28;20218;-68
2023/12/15 00:07:04;;;;;;;5.70;4.10;;;8.80;99.90;;;;;;4962406;28;20188;-68
2023/12/15 00:09:29;;;;;;;5.43;3.90;;;8.80;99.90;;;;;;4961077;28;20248;-68
2023/12/15 00:11:55;;;;;;;3.80;3.40;;;8.80;99.90;;;;;;4957679;28;20219;-67
2023/12/15 00:14:20;;;;;;;5.40;3.60;;;8.80;99.90;;;;;;4964694;28;20214;-69
2023/12/15 00:16:46;;;;;;;4.47;3.57;;;8.80;99.90;;;;;;4964433;28;20697;-68
2023/12/15 00:19:12;;;;;;;5.47;3.13;;;8.80;99.90;;;;;;4966186;28;20189;-68
2023/12/15 00:21:37;;;;;;;6.83;3.53;;;8.80;99.90;;;;;;4963701;28;20567;-68
2023/12/15 00:24:04;;;;;;;4.70;3.20;;;8.80;99.90;;;;;;4957121;28;20672;-68
2023/12/15 00:26:30;;;;;;;6.00;4.10;;;8.80;99.90;;;;;;4958641;28;20202;-68
2023/12/15 00:28:55;;;;;;;5.80;3.90;;;8.80;99.90;;;;;;4962849;28;20812;-68
2023/12/15 00:31:21;;;;;;;6.13;4.30;;;8.70;99.90;;;;;;4958358;28;20567;-68
2023/12/15 00:33:46;;;;;;;5.47;3.27;;;8.60;99.90;;;;;;4964302;28;20584;-68
2023/12/15 00:36:12;;;;;;;7.23;3.83;;;8.70;99.90;;;;;;4962085;28;20190;-68
2023/12/15 00:38:37;;;;;;;4.97;3.80;;;8.70;99.90;;;;;;4965703;28;20196;-69
2023/12/15 00:41:03;;;;;;;4.50;3.40;;;8.70;99.90;;;;;;4963327;28;20198;-68
2023/12/15 00:43:29;;;;;;;4.93;3.40;;;8.70;99.90;;;;;;4960839;28;20218;-68
2023/12/15 00:45:54;;;;;;;5.20;3.93;;;8.70;99.90;;;;;;4965509;28;20187;-68
2023/12/15 00:48:20;;;;;;;6.57;4.10;;;8.70;99.90;;;;;;4960669;28;20183;-68
2023/12/15 00:50:45;;;;;;;4.97;3.80;;;8.50;99.90;;;;;;4965733;28;20749;-67
2023/12/15 00:53:11;;;;;;;5.33;4.17;;;8.60;99.90;;;;;;4964632;28;20239;-67
2023/12/15 00:55:36;;;;;;;5.90;3.73;;;8.60;99.90;;;;;;4961217;28;20210;-68
2023/12/15 00:58:02;;;;;;;6.03;4.07;;;8.60;99.90;;;;;;4960349;28;20187;-67
2023/12/15 01:00:27;;;;;;;6.27;4.10;;;8.60;99.90;;;;;;4964444;28;20186;-67
2023/12/15 01:02:53;;;;;;;7.83;4.40;;;8.60;99.90;;;;;;4969484;28;20221;-68
2023/12/15 01:05:19;;;;;;;8.37;3.80;;;8.60;99.90;;;;;;4963776;28;20665;-68
2023/12/15 01:07:44;;;;;;;5.77;4.07;;;8.50;99.90;;;;;;4963015;28;20218;-68
2023/12/15 01:10:10;;;;;;;10.80;5.40;;;8.50;99.90;;;;;;4965872;28;20186;-68
2023/12/15 01:12:36;;;;;;;8.20;5.10;;;8.50;99.90;;;;;;4956968;28;20253;-68
2023/12/15 01:15:01;;;;;;;7.20;5.10;;;8.50;99.90;;;;;;4959586;28;20199;-67
2023/12/15 01:17:27;;;;;;;5.80;4.63;;;8.50;99.90;;;;;;4960989;28;20179;-67
2023/12/15 01:19:52;;;;;;;8.60;6.20;;;8.50;99.90;;;;;;4965092;28;20201;-68
2023/12/15 01:22:18;;;;;;;7.60;5.70;;;8.60;99.90;;;;;;4966656;28;20235;-68
2023/12/15 01:24:43;;;;;;;6.20;5.13;;;8.60;99.90;;;;;;4966064;28;20201;-68
2023/12/15 01:27:10;;;;;;;7.17;5.80;;;8.50;99.90;;;;;;4965295;28;20221;-68
2023/12/15 01:29:35;;;;;;;8.10;6.23;;;8.60;99.90;;;;;;4956450;28;20913;-68
2023/12/15 01:32:01;;;;;;;6.67;5.37;;;8.50;99.90;;;;;;4964743;28;20513;-67
2023/12/15 01:34:26;;;;;;;8.33;5.30;;;8.40;99.90;;;;;;4953489;28;20238;-68
2023/12/15 01:36:52;;;;;;;8.03;6.33;;;8.50;99.90;;;;;;4962894;28;20280;-68
2023/12/15 01:39:17;;;;;;;6.13;4.90;;;8.50;99.90;;;;;;4961406;28;20209;-68
2023/12/15 01:41:43;;;;;;;8.40;6.03;;;8.40;99.90;;;;;;4965313;28;20217;-68
2023/12/15 01:44:09;;;;;;;8.50;5.27;;;8.40;99.90;;;;;;4960420;28;20297;-68
2023/12/15 01:46:34;;;;;;;7.77;5.80;;;8.50;99.90;;;;;;4958877;28;20535;-68
2023/12/15 01:49:00;;;;;;;6.10;5.30;;;8.40;99.90;;;;;;4963712;28;20201;-68
2023/12/15 01:51:25;;;;;;;6.57;5.73;;;8.40;99.90;;;;;;4959843;28;20191;-68
2023/12/15 01:53:51;;;;;;;5.93;4.90;;;8.40;99.90;;;;;;4962338;28;20217;-68
2023/12/15 01:56:17;;;;;;;7.90;5.97;;;8.30;99.90;;;;;;4949651;28;20194;-68
2023/12/15 01:58:42;;;;;;;7.63;5.40;;;8.30;99.90;;;;;;4963874;28;20220;-68
2023/12/15 02:01:08;;;;;;;8.40;5.93;;;8.30;99.90;;;;;;4958239;28;20190;-68
2023/12/15 02:03:34;;;;;;;8.47;6.50;;;8.30;99.90;;;;;;4963056;28;20329;-68
2023/12/15 02:06:00;;;;;;;7.30;5.80;;;8.30;99.90;;;;;;4958844;28;20815;-67
2023/12/15 02:08:26;;;;;;;10.83;6.60;;;8.30;99.90;;;;;;4963950;28;20441;-68
2023/12/15 02:10:51;;;;;;;7.67;5.93;;;8.40;99.90;;;;;;4962850;28;20664;-68
2023/12/15 02:13:17;;;;;;;9.73;7.10;;;8.30;99.90;;;;;;4963524;28;20473;-68
2023/12/15 02:15:43;;;;;;;8.60;5.87;;;8.40;99.90;;;;;;4958126;28;20191;-68
2023/12/15 02:18:08;;;;;;;9.87;5.80;;;8.30;99.90;;;;;;4969782;28;20202;-68
2023/12/15 02:20:34;;;;;;;8.30;6.07;;;8.30;99.90;;;;;;4959878;28;20285;-68
2023/12/15 02:22:59;;;;;;;7.60;5.47;;;8.30;99.90;;;;;;4969757;28;20232;-67
2023/12/15 02:25:25;;;;;;;7.83;6.43;;;8.20;99.90;;;;;;4963604;28;20244;-68
2023/12/15 02:27:50;;;;;;;7.70;5.80;;;8.10;99.90;;;;;;4967071;28;20325;-67
2023/12/15 02:30:16;;;;;;;7.30;5.40;;;8.20;99.90;;;;;;4962736;28;20199;-67
2023/12/15 02:32:42;;;;;;;6.40;5.10;;;8.20;99.90;;;;;;4964046;28;20217;-67
2023/12/15 02:35:08;;;;;;;8.00;6.17;;;8.20;99.90;;;;;;4974321;28;20203;-67
2023/12/15 02:37:33;;;;;;;13.97;5.90;;;8.20;99.90;;;;;;4970568;28;20201;-68
2023/12/15 02:39:59;;;;;;;7.37;5.43;;;8.20;99.90;;;;;;4974549;28;20433;-68
2023/12/15 02:42:24;;;;;;;7.43;5.40;;;8.10;99.90;;;;;;4972607;28;20248;-66
2023/12/15 02:44:50;;;;;;;11.47;5.90;;;8.20;99.90;;;;;;4966836;28;20218;-67
2023/12/15 02:47:15;;;;;;;8.00;5.47;;;8.20;99.90;;;;;;4960435;28;20187;-67
2023/12/15 02:49:41;;;;;;;7.53;6.77;;;8.20;99.90;;;;;;4967492;28;20219;-67
2023/12/15 02:52:07;;;;;;;10.20;5.90;;;8.10;99.90;;;;;;4959365;28;20236;-66
2023/12/15 02:54:34;;;;;;;9.70;7.77;;;8.00;99.90;;;;;;4967293;28;20215;-67
2023/12/15 02:57:00;;;;;;;7.17;5.17;;;8.00;99.90;;;;;;4965141;28;20445;-67
2023/12/15 02:59:25;;;;;;;8.83;5.70;;;8.00;99.90;;;;;;4965623;28;20780;-68
2023/12/15 03:01:51;;;;;;;8.43;5.67;;;8.10;99.90;;;;;;4959096;28;20220;-67
2023/12/15 03:04:16;;;;;;;9.00;5.50;;;8.00;99.90;;;;;;4963605;28;20218;-67
2023/12/15 03:06:42;;;;;;;10.50;6.47;;;8.10;99.90;;;;;;4966044;28;20197;-67
2023/12/15 03:09:07;;;;;;;7.73;5.43;;;8.20;99.90;;;;;;4960727;28;20218;-67
2023/12/15 03:11:34;;;;;;;11.57;6.30;;;8.20;99.90;;;;;;4964991;28;20238;-67
2023/12/15 03:14:00;;;;;;;11.03;6.00;;;8.20;99.90;;;;;;4960438;28;20889;-67
2023/12/15 03:16:25;;;;;;;8.37;6.03;;;8.10;99.90;;;;;;4958858;28;20441;-67
2023/12/15 03:18:51;;;;;;;9.57;6.40;;;8.10;99.90;;;;;;4958988;28;20199;-67
2023/12/15 03:21:17;;;;;;;18.10;7.83;;;8.20;99.90;;;;;;4968606;28;20571;-68
2023/12/15 03:23:42;;;;;;;10.00;7.27;;;8.00;99.90;;;;;;4956319;28;20673;-68
2023/12/15 03:26:08;;;;;;;9.53;7.00;;;7.90;99.90;;;;;;4971095;28;20217;-67
2023/12/15 03:28:33;;;;;;;11.93;7.30;;;7.90;99.90;;;;;;4960070;28;20295;-68
2023/12/15 03:30:59;;;;;;;11.67;7.07;;;8.00;99.90;;;;;;4960515;28;20179;-68
2023/12/15 03:33:27;;;;;;;8.97;6.47;;;7.90;99.90;;;;;;4964362;28;20265;-68
2023/12/15 03:35:53;;;;;;;10.40;7.13;;;8.00;99.90;;;;;;4965929;28;20187;-68
2023/12/15 03:38:20;;;;;;;10.30;7.13;;;7.90;99.90;;;;;;4962151;28;20981;-67
2023/12/15 03:40:46;;;;;;;13.37;7.70;;;8.00;99.90;;;;;;4960785;28;20734;-68
2023/12/15 03:43:12;;;;;;;12.13;7.80;;;8.00;99.90;;;;;;4968616;28;20555;-68
2023/12/15 03:45:37;;;;;;;11.77;7.60;;;7.90;99.90;;;;;;4961784;28;20178;-68
2023/12/15 03:48:03;;;;;;;10.93;7.50;;;7.90;99.90;;;;;;4964657;28;20201;-68
2023/12/15 03:50:29;;;;;;;9.23;7.27;;;7.90;99.90;;;;;;4959887;28;20681;-68
2023/12/15 03:52:54;;;;;;;11.97;9.07;;;7.90;99.90;;;;;;4964151;28;20210;-67
2023/12/15 03:55:20;;;;;;;13.90;9.33;;;7.90;99.90;;;;;;4957245;28;20437;-67
2023/12/15 03:57:46;;;;;;;16.83;8.87;;;7.80;99.90;;;;;;4955210;28;20198;-68
2023/12/15 04:00:12;;;;;;;11.30;8.97;;;7.80;99.90;;;;;;4960210;28;20434;-68
2023/12/15 04:02:38;;;;;;;12.77;8.57;;;7.80;99.90;;;;;;4964048;28;20761;-68
2023/12/15 04:05:04;;;;;;;15.07;8.70;;;7.80;99.90;;;;;;4967622;28;20544;-68
2023/12/15 04:07:29;;;;;;;13.57;9.40;;;7.80;99.90;;;;;;4965330;28;20293;-68
2023/12/15 04:09:56;;;;;;;16.07;10.10;;;7.90;99.90;;;;;;4959453;28;20431;-68
2023/12/15 04:12:21;;;;;;;11.13;8.37;;;8.00;99.90;;;;;;4960328;28;20214;-67
2023/12/15 04:14:47;;;;;;;12.43;8.83;;;7.90;99.90;;;;;;4959853;28;20453;-68
2023/12/15 04:17:13;;;;;;;17.50;9.60;;;8.00;99.90;;;;;;4965251;28;20225;-68
2023/12/15 04:19:39;;;;;;;14.37;9.50;;;8.00;99.90;;;;;;4962761;28;20252;-68
2023/12/15 04:22:04;;;;;;;14.63;9.13;;;8.00;99.90;;;;;;4960946;28;20473;-68
2023/12/15 04:24:30;;;;;;;15.67;10.87;;;8.10;99.90;;;;;;4964625;28;20217;-68
2023/12/15 04:26:56;;;;;;;13.07;9.37;;;8.10;99.90;;;;;;4963318;28;20187;-68
2023/12/15 04:29:22;;;;;;;19.57;11.20;;;8.00;99.90;;;;;;4963525;28;20423;-68
2023/12/15 04:31:48;;;;;;;16.50;9.50;;;8.00;99.90;;;;;;4963112;28;20178;-67
2023/12/15 04:34:13;;;;;;;19.17;10.00;;;7.90;99.90;;;;;;4959942;28;20294;-68
2023/12/15 04:36:39;;;;;;;17.10;10.90;;;7.90;99.90;;;;;;4964044;28;20191;-68
2023/12/15 04:39:05;;;;;;;14.20;9.70;;;7.90;99.90;;;;;;4965492;28;20656;-68
2023/12/15 04:41:31;;;;;;;14.97;9.70;;;7.90;99.90;;;;;;4962882;28;20633;-68
2023/12/15 04:43:57;;;;;;;22.13;11.57;;;8.00;99.90;;;;;;4968045;28;20204;-67
2023/12/15 04:46:26;;;;;;;13.83;10.10;;;8.10;99.90;;;;;;4955290;28;20199;-68
2023/12/15 04:48:54;;;;;;;15.90;9.20;;;8.00;99.90;;;;;;4960246;28;20195;-68
2023/12/15 04:51:20;;;;;;;19.57;10.40;;;8.10;99.90;;;;;;4962403;28;20496;-68
2023/12/15 04:53:46;;;;;;;13.90;9.97;;;8.00;99.90;;;;;;4959645;28;20445;-68
2023/12/15 04:56:12;;;;;;;15.57;10.57;;;8.00;99.90;;;;;;4960162;28;20205;-68
2023/12/15 04:58:38;;;;;;;17.50;10.80;;;8.00;99.90;;;;;;4958628;28;20484;-68
2023/12/15 05:01:04;;;;;;;15.37;10.20;;;8.10;99.90;;;;;;4965036;28;20488;-68
2023/12/15 05:03:31;;;;;;;19.17;12.10;;;8.00;99.90;;;;;;4958227;28;20277;-68
2023/12/15 05:05:57;;;;;;;16.97;11.37;;;8.00;99.90;;;;;;4962436;28;20545;-68
2023/12/15 05:08:22;;;;;;;15.53;10.43;;;8.00;99.90;;;;;;4959796;28;20466;-68
2023/12/15 05:10:48;;;;;;;16.90;12.03;;;8.10;99.90;;;;;;4960495;28;20187;-68
2023/12/15 05:13:13;;;;;;;15.10;10.93;;;8.10;99.90;;;;;;4962400;28;20217;-67
2023/12/15 05:15:39;;;;;;;13.90;10.07;;;8.00;99.90;;;;;;4955803;28;20195;-68
2023/12/15 05:18:04;;;;;;;15.30;10.47;;;8.00;99.90;;;;;;4963596;28;20191;-67
2023/12/15 05:20:32;;;;;;;17.90;10.20;;;8.00;99.90;;;;;;4961972;28;20309;-67
2023/12/15 05:22:57;;;;;;;16.73;10.50;;;8.10;99.90;;;;;;4953533;28;20217;-68
2023/12/15 05:25:23;;;;;;;16.13;11.40;;;8.20;99.90;;;;;;4959859;28;20426;-68
2023/12/15 05:27:48;;;;;;;14.70;9.83;;;8.10;99.90;;;;;;4957166;28;20568;-67
2023/12/15 05:30:14;;;;;;;20.07;11.80;;;8.20;99.90;;;;;;4959392;28;20194;-68
2023/12/15 05:32:40;;;;;;;15.00;10.83;;;8.20;99.90;;;;;;4961209;28;20241;-68
2023/12/15 05:35:06;;;;;;;18.00;11.57;;;8.10;99.90;;;;;;4965285;28;20182;-67
2023/12/15 05:37:32;;;;;;;14.83;11.00;;;8.10;99.90;;;;;;4960336;28;20221;-68
2023/12/15 05:39:57;;;;;;;16.53;11.10;;;8.00;99.90;;;;;;4963623;28;20509;-68
2023/12/15 05:42:24;;;;;;;16.23;12.07;;;8.00;99.90;;;;;;4964871;28;20657;-68
2023/12/15 05:44:50;;;;;;;18.30;11.90;;;7.90;99.90;;;;;;4958813;28;20353;-68
2023/12/15 05:47:16;;;;;;;16.87;12.03;;;7.90;99.90;;;;;;4955399;28;20533;-68
2023/12/15 05:49:41;;;;;;;18.03;12.10;;;8.00;99.90;;;;;;4956625;28;20621;-67
2023/12/15 05:52:08;;;;;;;18.77;11.50;;;7.90;99.90;;;;;;4964651;28;20257;-68
2023/12/15 05:54:35;;;;;;;19.57;11.37;;;7.90;99.90;;;;;;4962897;28;20209;-67
2023/12/15 05:57:00;;;;;;;19.20;12.17;;;7.90;99.90;;;;;;4955878;28;20451;-68
2023/12/15 05:59:26;;;;;;;18.67;11.47;;;7.90;99.90;;;;;;4959276;28;20429;-68
2023/12/15 06:01:51;;;;;;;20.10;12.20;;;7.90;99.90;;;;;;4963113;28;20208;-69
2023/12/15 06:04:17;;;;;;;21.13;11.23;;;7.90;99.90;;;;;;4963176;28;20217;-67
2023/12/15 06:06:43;;;;;;;21.70;11.60;;;8.00;99.90;;;;;;4964087;28;20198;-68
2023/12/15 06:09:09;;;;;;;19.50;12.10;;;7.90;99.90;;;;;;4963855;28;20193;-68
2023/12/15 06:11:40;;;;;;;21.07;13.37;;;7.90;99.90;;;;;;4959215;28;20673;-68
2023/12/15 06:14:06;;;;;;;21.30;11.97;;;7.90;99.90;;;;;;4961970;28;20897;-68
2023/12/15 06:16:31;;;;;;;17.43;12.90;;;8.00;99.90;;;;;;4962299;28;20533;-68
2023/12/15 06:18:57;;;;;;;18.53;11.40;;;8.00;99.90;;;;;;4960238;28;20193;-68
2023/12/15 06:21:24;;;;;;;16.57;10.90;;;8.00;99.90;;;;;;4960659;28;20365;-67
2023/12/15 06:23:50;;;;;;;20.07;11.17;;;8.10;99.90;;;;;;4964129;28;20197;-67
2023/12/15 06:26:26;;;;;;;21.40;11.80;;;8.10;99.90;;;;;;4962305;28;20461;-67
2023/12/15 06:28:55;;;;;;;18.60;13.07;;;8.20;99.90;;;;;;4958554;28;20444;-67
2023/12/15 06:31:21;;;;;;;20.13;12.43;;;8.20;99.90;;;;;;4955929;28;20417;-66
2023/12/15 06:33:47;;;;;;;18.47;11.73;;;8.10;99.90;;;;;;4957456;28;20609;-67
2023/12/15 06:36:14;;;;;;;22.87;13.50;;;8.10;99.90;;;;;;4956810;28;20178;-67
2023/12/15 06:38:44;;;;;;;16.47;11.50;;;8.10;99.90;;;;;;4959058;28;20193;-67
2023/12/15 06:41:10;;;;;;;17.13;12.00;;;8.10;99.90;;;;;;4965585;28;20427;-67
2023/12/15 06:43:39;;;;;;;16.27;12.50;;;8.20;99.90;;;;;;4963305;28;20441;-67
2023/12/15 06:46:05;;;;;;;19.50;12.90;;;8.10;99.90;;;;;;4959749;28;20446;-67
2023/12/15 06:48:31;;;;;;;15.80;11.63;;;8.10;99.90;;;;;;4967231;28;20853;-67
2023/12/15 06:50:57;;;;;;;19.40;13.30;;;8.10;99.90;;;;;;4963565;28;20270;-68
2023/12/15 06:53:22;;;;;;;16.90;12.50;;;8.10;99.90;;;;;;4971909;28;20787;-67
2023/12/15 06:55:48;;;;;;;18.20;12.70;;;8.20;99.90;;;;;;4963714;28;20248;-68
2023/12/15 06:58:13;;;;;;;21.13;12.50;;;8.10;99.90;;;;;;4969566;28;20626;-68
2023/12/15 07:00:39;;;;;;;19.13;12.67;;;8.10;99.90;;;;;;4967363;28;20197;-68
2023/12/15 07:03:05;;;;;;;23.60;12.33;;;8.10;99.90;;;;;;4962628;28;20253;-67
2023/12/15 07:05:30;;;;;;;20.53;12.57;;;8.10;99.90;;;;;;4963751;28;20840;-67
2023/12/15 07:07:56;;;;;;;18.03;12.63;;;8.00;99.90;;;;;;4969165;28;20186;-67
2023/12/15 07:10:22;;;;;;;17.67;12.63;;;8.10;99.90;;;;;;4963675;28;20190;-67
2023/12/15 07:12:48;;;;;;;22.93;13.30;;;8.00;99.90;;;;;;4964233;28;20796;-68
2023/12/15 07:15:15;;;;;;;18.23;12.73;;;8.10;99.90;;;;;;4963043;28;20203;-67
2023/12/15 07:17:40;;;;;;;16.73;11.60;;;8.10;99.90;;;;;;4962610;28;20206;-68
2023/12/15 07:20:08;;;;;;;16.83;11.27;;;8.10;99.90;;;;;;4963687;28;20473;-68
2023/12/15 07:22:33;;;;;;;16.73;11.03;;;8.10;99.90;;;;;;4958765;28;20265;-67
2023/12/15 07:24:59;;;;;;;15.10;10.60;;;8.10;99.90;;;;;;4963526;28;20820;-67
2023/12/15 07:27:25;;;;;;;18.80;13.40;;;8.20;99.90;;;;;;4957339;28;20237;-67
2023/12/15 07:29:52;;;;;;;17.20;11.53;;;8.10;99.90;;;;;;4959101;28;20190;-67
2023/12/15 07:32:18;;;;;;;17.00;11.33;;;8.10;99.90;;;;;;4964718;28;20297;-67
2023/12/15 07:34:43;;;;;;;18.00;11.90;;;8.10;99.90;;;;;;4958937;28;20542;-67
2023/12/15 07:37:09;;;;;;;20.80;12.77;;;8.00;99.90;;;;;;4957008;28;20187;-67
2023/12/15 07:39:34;;;;;;;20.00;12.77;;;8.00;99.90;;;;;;4964833;28;20191;-68
2023/12/15 07:42:00;;;;;;;17.97;12.70;;;8.00;99.90;;;;;;4954258;28;20234;-68
2023/12/15 07:44:25;;;;;;;12.80;10.77;;;8.00;99.90;;;;;;4965780;28;20230;-67
2023/12/15 07:46:54;;;;;;;16.40;11.53;;;8.00;99.90;;;;;;4964343;28;20202;-66
2023/12/15 07:49:20;;;;;;;16.07;11.73;;;8.10;99.90;;;;;;4964209;28;20194;-67
2023/12/15 07:51:46;;;;;;;15.20;11.20;;;8.20;99.90;;;;;;4962807;28;20472;-67
2023/12/15 07:54:11;;;;;;;16.90;11.40;;;8.20;99.90;;;;;;4961298;28;20485;-67
2023/12/15 07:56:37;;;;;;;19.73;11.63;;;8.30;99.90;;;;;;4964237;28;20201;-67
2023/12/15 07:59:02;;;;;;;15.93;10.97;;;8.40;99.90;;;;;;4966827;28;20194;-66
2023/12/15 08:01:28;;;;;;;19.53;12.90;;;8.40;99.90;;;;;;4965405;28;20202;-67
2023/12/15 08:03:53;;;;;;;20.70;12.63;;;8.40;99.90;;;;;;4967507;28;20280;-67
2023/12/15 08:06:20;;;;;;;20.87;12.57;;;8.30;99.90;;;;;;4966560;28;20644;-66
2023/12/15 08:08:47;;;;;;;18.20;12.90;;;8.30;99.90;;;;;;4961831;28;20217;-67
2023/12/15 08:11:13;;;;;;;14.93;10.97;;;8.30;99.90;;;;;;4961364;28;20441;-67
2023/12/15 08:13:39;;;;;;;17.30;11.97;;;8.40;99.90;;;;;;4959208;28;20713;-68
2023/12/15 08:16:07;;;;;;;16.23;11.63;;;8.40;99.90;;;;;;4962981;28;20883;-67
2023/12/15 08:18:32;;;;;;;17.23;12.27;;;8.40;99.90;;;;;;4956289;28;20838;-68
2023/12/15 08:20:58;;;;;;;18.90;13.50;;;8.40;99.90;;;;;;4962109;28;20417;-68
2023/12/15 08:23:24;;;;;;;19.37;11.53;;;8.40;99.90;;;;;;4961906;28;20272;-67
2023/12/15 08:25:50;;;;;;;15.70;11.60;;;8.50;99.90;;;;;;4957936;28;20988;-67
2023/12/15 08:28:16;;;;;;;19.47;11.63;;;8.50;99.90;;;;;;4961807;28;20260;-68
2023/12/15 08:30:41;;;;;;;21.20;12.67;;;8.40;99.90;;;;;;4958208;28;20286;-68
2023/12/15 08:33:07;;;;;;;18.97;11.77;;;8.40;99.90;;;;;;4956611;28;20620;-68
2023/12/15 08:35:33;;;;;;;18.40;12.23;;;8.40;99.90;;;;;;4962833;28;20228;-68
2023/12/15 08:37:59;;;;;;;16.47;12.83;;;8.40;99.90;;;;;;4963952;28;20504;-68
2023/12/15 08:40:25;;;;;;;18.07;11.30;;;8.30;99.90;;;;;;4958026;28;20191;-67
2023/12/15 08:42:51;;;;;;;16.87;9.63;;;8.40;99.90;;;;;;4953473;28;20509;-67
2023/12/15 08:45:17;;;;;;;16.93;10.90;;;8.40;99.90;;;;;;4953813;28;20454;-68
2023/12/15 08:47:43;;;;;;;20.10;12.03;;;8.40;99.90;;;;;;4954240;28;20431;-68
2023/12/15 08:50:09;;;;;;;22.13;12.33;;;8.30;99.90;;;;;;4957043;28;20452;-68
2023/12/15 08:52:34;;;;;;;17.90;11.30;;;8.30;99.90;;;;;;4960705;28;20503;-72
2023/12/15 08:55:00;;;;;;;17.17;11.60;;;8.30;99.90;;;;;;4959989;28;20437;-68
2023/12/15 08:57:25;;;;;;;18.60;11.93;;;8.40;99.90;;;;;;4959858;28;20187;-68
2023/12/15 08:59:51;;;;;;;18.33;12.07;;;8.40;99.90;;;;;;4957500;28;20194;-68
2023/12/15 09:02:17;;;;;;;15.20;10.90;;;8.40;99.90;;;;;;4962906;28;20225;-68
2023/12/15 09:04:43;;;;;;;17.83;13.10;;;8.40;99.90;;;;;;4965017;28;20453;-66
2023/12/15 09:07:08;;;;;;;17.27;11.10;;;8.40;99.90;;;;;;4955661;28;20731;-68
2023/12/15 09:09:35;;;;;;;14.93;10.50;;;8.50;99.90;;;;;;4959863;28;20230;-68
2023/12/15 09:12:01;;;;;;;17.43;10.90;;;8.50;99.90;;;;;;4960453;28;20701;-68
2023/12/15 09:14:29;;;;;;;17.27;10.17;;;8.50;99.90;;;;;;4962543;28;20947;-67
2023/12/15 09:16:55;;;;;;;16.40;11.77;;;8.40;99.90;;;;;;4962281;28;20563;-68
2023/12/15 09:19:21;;;;;;;16.10;10.90;;;8.50;99.90;;;;;;4967031;28;20788;-68
2023/12/15 09:21:47;;;;;;;12.97;9.70;;;8.50;99.90;;;;;;4955607;28;20547;-67
2023/12/15 09:24:17;;;;;;;15.57;11.13;;;8.60;99.90;;;;;;4955046;28;20683;-68
2023/12/15 09:26:44;;;;;;;16.27;10.80;;;8.70;99.90;;;;;;4964953;28;20405;-68
2023/12/15 09:29:10;;;;;;;13.27;10.43;;;8.60;99.90;;;;;;4954951;28;20452;-67
2023/12/15 09:31:36;;;;;;;15.67;9.30;;;8.60;99.90;;;;;;4953909;28;20446;-68
2023/12/15 09:34:02;;;;;;;11.67;8.97;;;8.60;99.90;;;;;;4956049;28;20460;-67
2023/12/15 09:36:28;;;;;;;15.20;9.23;;;8.70;99.90;;;;;;4956902;28;20415;-68
2023/12/15 09:38:53;;;;;;;14.30;8.57;;;8.70;99.90;;;;;;4964573;28;20195;-68
2023/12/15 09:41:20;;;;;;;14.00;9.30;;;8.70;99.90;;;;;;4959838;28;20179;-67
2023/12/15 09:43:45;;;;;;;12.67;9.13;;;8.60;99.90;;;;;;4955561;28;20213;-68
2023/12/15 09:46:11;;;;;;;13.47;9.43;;;8.70;99.90;;;;;;4957118;28;20413;-68
2023/12/15 09:48:37;;;;;;;17.10;10.03;;;8.80;99.90;;;;;;4954437;28;20187;-67
2023/12/15 09:51:07;;;;;;;12.10;8.63;;;8.90;99.90;;;;;;4962154;28;20183;-67
2023/12/15 09:53:38;;;;;;;14.50;9.67;;;8.90;99.90;;;;;;4957319;28;20457;-67
2023/12/15 09:56:04;;;;;;;14.30;9.87;;;9.10;99.90;;;;;;4953909;28;20422;-67
2023/12/15 09:58:30;;;;;;;12.67;8.90;;;9.10;99.90;;;;;;4953089;28;20521;-67
2023/12/15 10:00:56;;;;;;;13.57;9.40;;;9.10;99.90;;;;;;4963701;28;20508;-67
2023/12/15 10:03:23;;;;;;;16.60;9.70;;;9.00;99.90;;;;;;4959316;28;20274;-68
2023/12/15 10:05:48;;;;;;;14.10;8.93;;;9.20;99.90;;;;;;4957352;28;20186;-67
2023/12/15 10:08:14;;;;;;;14.93;8.70;;;9.30;99.90;;;;;;4960597;28;20445;-67
2023/12/15 10:10:39;;;;;;;12.70;9.03;;;9.30;99.90;;;;;;4959436;28;20791;-68
2023/12/15 10:13:05;;;;;;;13.00;8.60;;;9.30;99.90;;;;;;4956516;28;20625;-68
2023/12/15 10:15:31;;;;;;;10.97;8.40;;;9.30;99.90;;;;;;4958819;28;20274;-68
2023/12/15 10:17:58;;;;;;;13.27;8.70;;;9.30;99.90;;;;;;4962270;28;20175;-68
2023/12/15 10:20:23;;;;;;;11.63;8.17;;;9.20;99.90;;;;;;4965966;28;20190;-67
2023/12/15 10:23:00;;;;;;;11.93;7.63;;;9.30;99.90;;;;;;4960174;28;20482;-68
2023/12/15 10:25:26;;;;;;;16.53;8.20;;;9.30;99.90;;;;;;4962279;28;20186;-68
2023/12/15 10:27:51;;;;;;;12.90;8.43;;;9.50;99.90;;;;;;4958810;28;20450;-67
2023/12/15 10:30:18;;;;;;;11.73;8.80;;;9.70;99.90;;;;;;4961692;28;20197;-68
2023/12/15 10:32:44;;;;;;;12.13;8.07;;;9.70;99.90;;;;;;4962769;28;20183;-67
2023/12/15 10:35:12;;;;;;;10.83;7.50;;;9.60;99.90;;;;;;4970568;28;20413;-68
2023/12/15 10:37:41;;;;;;;14.23;9.10;;;9.60;99.90;;;;;;4966825;28;20509;-67
2023/12/15 10:40:07;;;;;;;13.03;8.10;;;9.50;99.90;;;;;;4968380;28;21076;-68
2023/12/15 10:42:35;;;;;;;12.37;8.23;;;9.60;99.90;;;;;;4963444;28;20560;-68
2023/12/15 10:45:04;;;;;;;12.10;7.17;;;9.60;99.90;;;;;;4958895;28;20176;-68
2023/12/15 10:47:31;;;;;;;17.93;8.07;;;9.60;99.90;;;;;;4959047;28;20466;-68
2023/12/15 10:49:58;;;;;;;12.10;8.03;;;9.50;99.90;;;;;;4968407;28;20424;-68
2023/12/15 10:52:25;;;;;;;12.10;7.97;;;9.50;99.90;;;;;;4961735;28;20424;-68
2023/12/15 10:54:57;;;;;;;9.47;7.20;;;9.60;99.90;;;;;;4965637;28;20536;-68
2023/12/15 10:57:23;;;;;;;13.07;7.37;;;9.50;99.90;;;;;;4958690;28;20430;-69
2023/12/15 10:59:50;;;;;;;16.70;7.47;;;9.60;99.90;;;;;;4968300;28;20418;-68
2023/12/15 11:02:18;;;;;;;16.07;7.20;;;9.50;99.90;;;;;;4967316;28;20760;-68
2023/12/15 11:04:46;;;;;;;16.40;7.83;;;9.50;99.90;;;;;;4967909;28;20518;-68
2023/12/15 11:07:12;;;;;;;14.93;8.13;;;9.50;99.90;;;;;;4963129;28;20461;-68
2023/12/15 11:09:38;;;;;;;12.30;7.40;;;9.50;99.90;;;;;;4959937;28;20427;-67
2023/12/15 11:12:29;;;;;;;15.43;7.30;;;9.60;99.90;;;;;;4965144;28;20183;-67
2023/12/15 11:14:59;;;;;;;11.07;6.90;;;9.60;99.90;;;;;;4960794;28;20187;-67
2023/12/15 11:17:29;;;;;;;10.00;6.50;;;9.60;99.90;;;;;;4963741;28;20488;-69
2023/12/15 11:20:08;;;;;;;10.07;6.73;;;9.60;99.90;;;;;;4966946;28;20413;-69
2023/12/15 11:23:07;;;;;;;12.60;6.13;;;9.70;99.90;;;;;;4959751;28;20490;-68
2023/12/15 11:25:59;;;;;;;10.87;7.50;;;9.80;99.90;;;;;;4962205;28;20452;-67
2023/12/15 11:28:27;;;;;;;13.30;6.97;;;9.80;99.90;;;;;;4961292;28;20491;-67
2023/12/15 11:30:53;;;;;;;9.90;6.40;;;9.80;99.90;;;;;;4964572;28;20845;-67
2023/12/15 11:33:24;;;;;;;8.17;5.63;;;9.90;99.90;;;;;;4960490;28;20592;-67
2023/12/15 11:36:00;;;;;;;9.07;6.43;;;9.90;99.90;;;;;;4958229;28;20226;-68
2023/12/15 11:38:26;;;;;;;29.70;21.60;;;9.90;99.90;;;;;;4969411;28;20878;-67
2023/12/15 11:40:53;;;;;;;7.70;5.50;;;9.80;99.90;;;;;;4966736;28;20545;-67
2023/12/15 11:43:19;;;;;;;7.70;5.27;;;9.70;99.90;;;;;;4963926;28;20470;-68
2023/12/15 11:45:46;;;;;;;11.17;5.63;;;9.70;99.90;;;;;;4958139;28;20434;-68
2023/12/15 11:48:11;;;;;;;10.13;5.70;;;9.80;99.90;;;;;;4971801;28;20747;-68
2023/12/15 11:50:41;;;;;;;11.20;6.33;;;9.70;99.90;;;;;;4958444;28;20458;-68
2023/12/15 11:53:10;;;;;;;8.67;5.87;;;9.70;99.90;;;;;;4962374;28;20193;-68
2023/12/15 11:55:36;;;;;;;8.03;6.10;;;9.70;99.90;;;;;;4960564;28;20455;-68
2023/12/15 11:58:02;;;;;;;9.57;6.33;;;9.60;99.90;;;;;;4963095;28;20479;-68
2023/12/15 12:00:28;;;;;;;7.60;5.70;;;9.60;99.90;;;;;;4960293;28;20418;-68
2023/12/15 12:02:55;;;;;;;9.87;6.20;;;9.60;99.90;;;;;;4959693;28;20536;-68
2023/12/15 12:05:21;;;;;;;9.37;6.40;;;9.70;99.90;;;;;;4955415;28;20191;-68
2023/12/15 12:07:47;;;;;;;8.10;6.03;;;9.70;99.90;;;;;;4955738;28;20423;-68
2023/12/15 12:10:13;;;;;;;11.17;6.93;;;9.70;99.90;;;;;;4955602;28;20182;-68
2023/12/15 12:12:39;;;;;;;10.63;6.60;;;9.70;99.90;;;;;;4956610;28;20443;-68
2023/12/15 12:15:07;;;;;;;7.77;6.00;;;9.70;99.90;;;;;;4959832;28;20187;-68
2023/12/15 12:17:34;;;;;;;10.40;6.00;;;9.70;99.90;;;;;;4956542;28;20958;-68
2023/12/15 12:20:29;;;;;;;14.90;6.60;;;9.70;99.90;;;;;;4954409;28;20419;-68
2023/12/15 12:22:56;;;;;;;10.20;6.43;;;9.60;99.90;;;;;;4958340;28;20556;-68
2023/12/15 12:25:22;;;;;;;12.17;6.80;;;9.70;99.90;;;;;;4954359;28;20450;-68
2023/12/15 12:27:50;;;;;;;12.80;6.57;;;9.70;99.90;;;;;;4956084;28;20410;-68
2023/12/15 12:30:17;;;;;;;11.17;6.20;;;9.70;99.90;;;;;;4960813;28;20445;-68
2023/12/15 12:32:43;;;;;;;13.10;6.83;;;9.70;99.90;;;;;;4960285;28;20433;-68
2023/12/15 12:35:10;;;;;;;8.17;6.50;;;9.80;99.90;;;;;;4964668;28;20438;-68
2023/12/15 12:37:36;;;;;;;8.07;6.23;;;9.80;99.90;;;;;;4955655;28;20422;-68
2023/12/15 12:40:03;;;;;;;9.53;6.60;;;9.80;99.90;;;;;;4960398;28;20425;-68
2023/12/15 12:42:29;;;;;;;10.43;6.23;;;9.80;99.90;;;;;;4953957;28;21717;-68